Silver Lake, Wisconsin
Current Conditions -  °F | °C
As of 11:35 AM on Sunday 23 Nov 2014 (Local Time) from KBUU Reporting Station
Overcast Overcast  
Wind Chill: 43°   Ceiling: 1700
Heat Index: 47°   Visibility: 10mi
Dew Point: 46°   Wind: 7mph
Humidity: 96%   Direction: 180°S
Pressure: 29.62"   Gusts: NA
Location:  42.55°N, 88.17°W
Report Text: KBUU 231735Z AUTO 18006KT 10SM SCT009 OVC017 08/08 A2962 RMK AO2 T00820076
Loading
Personal Weather Stations






























Interactive Weather Map New forecast layout! Learn more

10-Day Weather Forecast

Advertisements
Track Severe Weather on mobile